createdAt,value
2022-10-17T00:00:54.578Z,13.10552
2022-10-17T00:10:55.692Z,13.14955
2022-10-17T00:20:56.840Z,13.17267
2022-10-17T00:30:57.940Z,13.25155
2022-10-17T00:40:59.075Z,13.33612
2022-10-17T00:51:00.365Z,13.34752
2022-10-17T01:01:02.149Z,13.43304
2022-10-17T01:11:03.903Z,13.4115
2022-10-17T01:21:05.681Z,13.62405
2022-10-17T01:31:07.429Z,13.75075
2022-10-17T01:41:08.966Z,13.80523
2022-10-17T01:51:10.506Z,13.81188
2022-10-17T02:01:11.773Z,13.77229
2022-10-17T02:11:12.897Z,13.79414
2022-10-17T02:21:14.080Z,13.73174
2022-10-17T02:31:15.282Z,13.80143
2022-10-17T02:41:16.428Z,13.94618
2022-10-17T02:51:17.610Z,13.85084
2022-10-17T03:01:18.767Z,13.74536
2022-10-17T03:11:19.971Z,13.72731
2022-10-17T03:21:21.379Z,13.75581
2022-10-17T03:31:22.479Z,13.73871
2022-10-17T03:41:23.703Z,13.78686
2022-10-17T03:51:24.813Z,13.8784
2022-10-17T04:01:26.016Z,13.98388
2022-10-17T04:11:27.131Z,14.07985
2022-10-17T04:21:28.246Z,14.07478
2022-10-17T04:31:29.379Z,14.16981
2022-10-17T04:41:30.770Z,14.18565
2022-10-17T04:51:31.967Z,14.2395
2022-10-17T05:01:33.088Z,14.22999
2022-10-17T05:11:34.205Z,14.249
2022-10-17T05:21:35.360Z,14.22809
2022-10-17T05:31:36.497Z,14.18628
2022-10-17T05:41:37.720Z,14.13212
2022-10-17T06:01:40.434Z,13.97849
2022-10-17T06:11:41.847Z,13.92844
2022-10-17T06:21:42.975Z,13.8179
2022-10-17T06:31:44.213Z,13.7517
2022-10-17T06:41:45.348Z,13.74188
2022-10-17T06:51:46.470Z,13.48784
2022-10-17T07:01:48.096Z,13.53124
2022-10-17T07:11:49.223Z,13.3282
2022-10-17T07:21:50.575Z,13.42639
2022-10-17T07:31:51.686Z,13.29431
2022-10-17T07:41:52.808Z,13.41404
2022-10-17T07:51:54.057Z,13.4701
2022-10-17T08:01:55.198Z,13.44666
2022-10-17T08:11:56.370Z,13.46567
2022-10-17T08:21:57.586Z,13.49196
2022-10-17T08:32:01.180Z,13.53187
2022-10-17T08:42:03.680Z,13.77292
2022-10-17T08:52:05.318Z,13.64717
2022-10-17T09:02:07.013Z,13.9012
2022-10-17T09:12:08.754Z,14.3586
2022-10-17T09:22:10.228Z,14.76975
2022-10-17T09:32:11.695Z,15.17931
2022-10-17T09:42:12.877Z,14.87586
2022-10-17T09:52:14.246Z,14.95093
2022-10-17T10:02:15.404Z,14.85875
2022-10-17T10:12:16.575Z,15.30411
2022-10-17T10:22:17.665Z,15.21701
2022-10-17T10:32:18.796Z,15.37444
2022-10-17T10:42:19.978Z,15.34181
2022-10-17T10:52:21.371Z,15.38901
2022-10-17T11:02:22.493Z,15.26864
2022-10-17T11:12:23.716Z,15.38837
2022-10-17T11:22:28.183Z,15.4663
2022-10-17T11:32:31.353Z,15.52331
2022-10-17T11:42:33.135Z,15.71939
2022-10-17T11:52:55.344Z,15.73016
2022-10-17T12:02:57.388Z,15.77735
2022-10-17T12:12:58.500Z,15.69848
2022-10-17T12:22:59.634Z,15.86319
2022-10-17T12:33:06.205Z,16.00479
2022-10-17T12:43:08.637Z,16.08588
2022-10-17T12:53:10.124Z,16.09633
2022-10-17T13:03:11.704Z,16.14701
2022-10-17T13:13:13.066Z,16.33042
2022-10-17T13:23:14.544Z,16.13181
2022-10-17T13:33:15.727Z,16.1562
2022-10-17T13:43:16.837Z,16.2205
2022-10-17T13:53:17.994Z,16.26802
2022-10-17T14:03:19.110Z,16.23792
2022-10-17T14:13:20.411Z,16.14543
2022-10-17T14:23:23.083Z,16.30286
2022-10-17T14:33:24.522Z,16.32472
2022-10-17T14:43:25.655Z,16.24521
2022-10-17T14:53:26.800Z,16.23254
2022-10-17T15:03:27.999Z,16.22145
2022-10-17T15:13:32.149Z,16.13149
2022-10-17T15:23:36.232Z,15.94555
2022-10-17T15:33:37.438Z,15.87777
2022-10-17T15:43:38.556Z,15.75486
2022-10-17T15:53:39.844Z,15.68137
2022-10-17T16:03:41.241Z,15.5553
2022-10-17T16:13:42.514Z,15.24171
2022-10-17T16:23:43.635Z,15.01143
2022-10-17T16:33:44.748Z,14.74029
2022-10-17T16:43:45.840Z,14.45521
2022-10-17T16:53:46.980Z,14.17013
2022-10-17T17:03:48.158Z,14.07383
2022-10-17T17:13:49.312Z,13.82075
2022-10-17T17:23:50.678Z,13.54232
2022-10-17T17:33:51.827Z,13.45743
2022-10-17T17:43:53.000Z,13.30318
2022-10-17T17:53:54.259Z,13.10204
2022-10-17T18:03:55.426Z,12.91516
2022-10-17T18:13:56.548Z,12.84262
2022-10-17T18:23:57.663Z,12.69533
2022-10-17T18:33:58.808Z,12.60506
2022-10-17T18:43:59.936Z,12.55913
2022-10-17T18:54:01.380Z,12.29813
2022-10-17T19:04:03.082Z,12.03365
2022-10-17T19:14:04.803Z,11.92532
2022-10-17T19:24:06.545Z,11.83346
2022-10-17T19:34:08.243Z,11.72925
2022-10-17T19:44:09.674Z,11.52337
2022-10-17T19:54:11.342Z,11.36246
2022-10-17T20:04:12.884Z,11.31432
2022-10-17T20:14:13.994Z,11.18034
2022-10-17T20:24:15.085Z,11.12332
2022-10-17T20:34:16.196Z,10.95893
2022-10-17T20:44:17.314Z,10.98839
2022-10-17T20:54:18.420Z,10.96083
2022-10-17T21:04:44.836Z,10.81291
2022-10-17T21:14:47.297Z,10.88481
2022-10-17T21:24:48.457Z,10.81196
2022-10-17T21:34:49.588Z,10.66468
2022-10-17T21:44:51.000Z,10.44549
2022-10-17T21:54:52.137Z,10.17721
2022-10-17T22:04:53.280Z,10.05274
2022-10-17T22:14:54.408Z,9.98812
2022-10-17T22:24:55.508Z,9.88328
2022-10-17T22:34:56.635Z,9.65333
2022-10-17T22:44:57.845Z,9.73251
2022-10-17T22:54:59.038Z,9.76355
2022-10-17T23:05:00.292Z,9.35084
2022-10-17T23:15:01.543Z,9.02302
2022-10-17T23:25:03.289Z,8.97266
2022-10-17T23:35:04.990Z,8.81271
2022-10-17T23:45:06.686Z,8.74746
2022-10-17T23:55:08.365Z,8.73004
